Time;durP1;ratioP1;P1;durP2;ratioP2;P2;SDS_P1;SDS_P2;PMS_P1;PMS_P2;Temp;Humidity;BMP_temperature;BMP_pressure;BME280_temperature;BME280_humidity;BME280_pressure;Samples;Min_cycle;Max_cycle;Signal;HPM_P1;HPM_P2
2021/12/17 00:01:08;;;;;;;11.13;7.20;;;3.60;75.30;;;;;;5064371;28;46498;-70
2021/12/17 00:03:43;;;;;;;12.00;7.32;;;3.60;75.30;;;;;;5057433;28;46240;-68
2021/12/17 00:08:44;;;;;;;12.63;7.88;;;3.60;75.80;;;;;;5072768;28;47033;-69
2021/12/17 00:11:14;;;;;;;13.45;8.43;;;3.60;75.90;;;;;;5059852;28;46437;-68
2021/12/17 00:13:42;;;;;;;13.80;8.57;;;3.60;76.00;;;;;;5056385;28;46392;-68
2021/12/17 00:16:15;;;;;;;11.82;7.47;;;3.60;76.10;;;;;;5052644;28;46361;-68
2021/12/17 00:18:58;;;;;;;14.60;8.43;;;3.60;76.00;;;;;;5055919;28;47529;-69
2021/12/17 00:48:56;;;;;;;12.13;7.75;;;4.00;75.20;;;;;;5073113;28;46381;-67
2021/12/17 00:54:07;;;;;;;13.30;8.20;;;4.00;75.30;;;;;;5075821;28;46449;-68
2021/12/17 00:56:34;;;;;;;11.43;7.45;;;3.90;75.50;;;;;;5057462;28;46328;-67
2021/12/17 00:58:59;;;;;;;12.65;8.35;;;4.00;75.70;;;;;;5056787;28;46298;-69
2021/12/17 01:01:26;;;;;;;12.30;7.80;;;4.00;75.80;;;;;;5073604;28;46316;-68
2021/12/17 01:03:53;;;;;;;13.98;8.05;;;4.00;75.80;;;;;;5057082;28;46471;-68
2021/12/17 01:06:19;;;;;;;11.90;7.70;;;4.10;75.80;;;;;;5055546;28;46472;-69
2021/12/17 01:08:47;;;;;;;11.90;8.20;;;4.00;75.80;;;;;;5055834;28;46584;-69
2021/12/17 01:11:12;;;;;;;12.20;7.35;;;4.10;75.90;;;;;;5065110;28;48668;-69
2021/12/17 01:13:41;;;;;;;10.93;7.10;;;4.10;75.90;;;;;;5055637;28;46301;-67
2021/12/17 01:16:10;;;;;;;10.77;7.15;;;4.10;75.80;;;;;;5055444;28;46385;-68
2021/12/17 01:18:48;;;;;;;11.00;7.37;;;4.10;75.60;;;;;;5058818;28;46400;-69
2021/12/17 01:40:47;;;;;;;12.23;8.00;;;4.20;75.60;;;;;;5074042;28;46373;-68
2021/12/17 01:42:47;;;;;;;12.67;7.63;;;4.20;75.70;;;;;;5064771;28;46425;-67
2021/12/17 01:45:13;;;;;;;13.53;8.13;;;4.30;75.80;;;;;;5052756;28;46383;-68
2021/12/17 01:47:39;;;;;;;10.27;6.82;;;4.30;75.80;;;;;;5054427;28;46429;-68
2021/12/17 02:01:05;;;;;;;11.87;7.17;;;4.40;75.80;;;;;;5073217;28;46399;-68
2021/12/17 02:03:34;;;;;;;15.00;8.60;;;4.30;75.80;;;;;;5054233;28;47254;-69
2021/12/17 02:06:02;;;;;;;14.50;8.60;;;4.30;75.80;;;;;;5068157;28;46360;-66
2021/12/17 02:08:30;;;;;;;13.60;8.20;;;4.40;75.90;;;;;;5046700;28;46452;-68
2021/12/17 02:11:57;;;;;;;14.03;8.43;;;4.40;75.80;;;;;;5053159;28;46347;-68
2021/12/17 02:19:47;;;;;;;13.25;8.10;;;4.40;75.60;;;;;;5069544;28;45800;-69
2021/12/17 02:30:59;;;;;;;13.30;8.10;;;4.50;75.40;;;;;;5072655;28;46360;-69
2021/12/17 02:33:26;;;;;;;12.37;8.40;;;4.50;75.40;;;;;;5068969;28;46434;-68
2021/12/17 02:35:52;;;;;;;14.17;8.23;;;4.50;75.30;;;;;;5052099;28;46470;-68
2021/12/17 02:38:18;;;;;;;13.35;8.20;;;4.50;75.20;;;;;;5053638;28;46308;-67
2021/12/17 02:46:12;;;;;;;13.10;7.97;;;4.50;75.30;;;;;;5070552;28;46795;-68
2021/12/17 02:48:42;;;;;;;14.93;7.80;;;4.50;75.30;;;;;;5055892;28;45766;-69
2021/12/17 02:51:08;;;;;;;15.73;8.70;;;4.60;75.20;;;;;;5058409;28;45891;-69
2021/12/17 02:53:34;;;;;;;14.60;8.33;;;4.50;75.00;;;;;;5065498;28;46190;-68
2021/12/17 02:56:07;;;;;;;12.00;7.85;;;4.50;75.00;;;;;;5062917;28;46257;-69
2021/12/17 02:58:35;;;;;;;15.38;8.82;;;4.50;76.40;;;;;;5061286;28;46483;-71
2021/12/17 03:01:03;;;;;;;14.60;8.33;;;4.40;75.80;;;;;;5057516;27;46429;-69
2021/12/17 03:03:32;;;;;;;16.90;9.30;;;4.20;76.40;;;;;;5056385;28;46334;-69
2021/12/17 03:06:03;;;;;;;18.03;8.80;;;4.10;76.60;;;;;;5060161;27;48558;-68
2021/12/17 03:08:29;;;;;;;20.70;9.57;;;4.10;76.40;;;;;;5053961;28;46426;-67
2021/12/17 03:10:55;;;;;;;15.83;8.83;;;4.20;76.20;;;;;;5060341;27;46426;-68
2021/12/17 03:13:25;;;;;;;15.60;8.00;;;4.10;76.10;;;;;;5055483;28;46037;-68
2021/12/17 03:15:59;;;;;;;12.83;8.10;;;4.10;76.20;;;;;;5056455;27;48022;-68
2021/12/17 03:23:42;;;;;;;14.93;8.03;;;4.30;75.30;;;;;;5075412;28;46417;-68
2021/12/17 03:26:28;;;;;;;16.17;8.70;;;4.40;75.30;;;;;;5053865;28;48723;-68
2021/12/17 03:29:06;;;;;;;20.27;9.45;;;4.40;75.30;;;;;;5033390;27;46640;-68
2021/12/17 03:31:33;;;;;;;14.38;8.73;;;4.50;75.20;;;;;;5065781;28;46393;-68
2021/12/17 03:36:41;;;;;;;17.27;9.77;;;4.30;75.60;;;;;;5069862;27;46498;-68
2021/12/17 03:39:07;;;;;;;14.55;9.05;;;4.20;76.20;;;;;;5062018;27;45756;-66
2021/12/17 03:41:37;;;;;;;15.50;8.87;;;4.10;76.30;;;;;;5060514;28;46386;-67
2021/12/17 03:44:04;;;;;;;16.90;9.30;;;4.00;76.40;;;;;;5056766;28;46001;-67
2021/12/17 03:46:29;;;;;;;17.45;9.15;;;4.00;76.60;;;;;;5058663;28;47779;-68
2021/12/17 03:48:58;;;;;;;17.90;9.47;;;3.90;76.60;;;;;;5055674;28;46459;-68
2021/12/17 03:51:29;;;;;;;18.05;8.82;;;4.00;76.60;;;;;;5054265;28;46318;-68
2021/12/17 03:53:58;;;;;;;17.27;9.60;;;3.90;76.80;;;;;;5062887;28;46786;-69
2021/12/17 03:56:28;;;;;;;14.97;9.10;;;4.00;76.70;;;;;;5068620;28;47042;-67
2021/12/17 03:58:58;;;;;;;17.02;9.32;;;4.00;76.50;;;;;;5061389;28;47259;-67
2021/12/17 04:01:27;;;;;;;15.60;9.07;;;3.90;76.80;;;;;;5054930;28;46278;-68
2021/12/17 04:03:52;;;;;;;21.30;10.70;;;3.90;77.00;;;;;;5071060;28;46337;-67
2021/12/17 04:06:18;;;;;;;21.70;13.00;;;3.90;76.70;;;;;;5055967;28;48568;-66
2021/12/17 04:08:44;;;;;;;20.47;11.97;;;3.90;76.70;;;;;;5055635;28;46326;-68
2021/12/17 04:11:17;;;;;;;24.37;13.30;;;4.00;76.70;;;;;;5063280;28;45780;-68
2021/12/17 04:13:43;;;;;;;30.40;17.50;;;4.00;76.80;;;;;;5060914;28;45919;-67
2021/12/17 04:16:10;;;;;;;27.35;15.45;;;4.00;76.60;;;;;;5057206;28;46298;-67
2021/12/17 04:18:41;;;;;;;27.30;16.13;;;4.00;76.60;;;;;;5058279;28;46382;-68
2021/12/17 04:21:14;;;;;;;22.80;13.15;;;4.20;76.40;;;;;;5072337;28;46513;-70
2021/12/17 04:23:41;;;;;;;17.90;10.17;;;4.20;76.30;;;;;;5059186;28;46340;-68
2021/12/17 04:26:10;;;;;;;18.10;11.23;;;4.20;76.30;;;;;;5059560;28;47718;-68
2021/12/17 04:28:41;;;;;;;23.42;11.68;;;4.20;76.50;;;;;;5057454;28;46458;-68
2021/12/17 04:31:07;;;;;;;22.67;12.10;;;4.20;76.50;;;;;;5058374;28;46481;-68
2021/12/17 04:33:33;;;;;;;28.20;11.07;;;4.40;76.30;;;;;;5058180;28;46659;-68
2021/12/17 04:35:59;;;;;;;22.30;12.67;;;4.40;76.30;;;;;;5067470;28;47243;-68
2021/12/17 04:38:26;;;;;;;19.83;11.07;;;4.40;76.50;;;;;;5060677;28;46413;-67
2021/12/17 04:40:53;;;;;;;22.43;11.60;;;4.50;76.10;;;;;;5063352;28;46327;-68
2021/12/17 04:45:59;;;;;;;30.20;15.80;;;4.50;76.20;;;;;;5074523;28;47009;-68
2021/12/17 04:59:21;;;;;;;36.92;18.30;;;4.80;75.60;;;;;;5071797;28;45831;-68
2021/12/17 05:01:49;;;;;;;35.80;17.90;;;4.70;77.20;;;;;;5049831;28;46417;-68
2021/12/17 05:04:19;;;;;;;25.23;13.20;;;4.80;75.90;;;;;;5057587;28;46349;-68
2021/12/17 05:06:45;;;;;;;18.80;12.47;;;4.90;75.80;;;;;;5066780;28;47830;-67
2021/12/17 05:09:23;;;;;;;21.00;11.00;;;4.90;75.40;;;;;;5054035;28;46469;-67
2021/12/17 05:19:49;;;;;;;15.23;9.43;;;4.90;75.80;;;;;;5073461;28;46036;-67
2021/12/17 05:22:18;;;;;;;17.87;10.50;;;4.90;76.00;;;;;;5058347;28;46456;-68
2021/12/17 05:24:44;;;;;;;14.60;8.70;;;4.90;76.00;;;;;;5055024;28;46506;-67
2021/12/17 05:27:09;;;;;;;17.50;9.90;;;4.90;76.10;;;;;;5051566;28;47538;-70
2021/12/17 05:29:35;;;;;;;14.27;9.33;;;5.00;75.90;;;;;;5060650;28;46476;-68
2021/12/17 05:32:03;;;;;;;16.30;10.03;;;5.00;75.70;;;;;;5056399;28;46394;-67
2021/12/17 05:34:29;;;;;;;16.27;10.43;;;4.90;75.60;;;;;;5057286;28;46651;-67
2021/12/17 05:36:55;;;;;;;17.93;9.33;;;5.00;75.80;;;;;;5056909;28;47993;-68
2021/12/17 05:39:24;;;;;;;18.77;10.00;;;5.00;75.70;;;;;;5056379;28;46568;-68
2021/12/17 05:41:49;;;;;;;16.40;9.90;;;4.90;76.20;;;;;;5054848;28;45780;-67
2021/12/17 05:44:18;;;;;;;18.00;10.40;;;4.80;76.50;;;;;;5056143;28;46442;-67
2021/12/17 05:46:50;;;;;;;27.13;11.30;;;4.70;77.10;;;;;;5055247;28;48716;-68
2021/12/17 05:49:21;;;;;;;20.80;10.70;;;4.70;77.10;;;;;;5050652;28;46311;-67
2021/12/17 05:51:48;;;;;;;19.60;11.67;;;4.70;77.00;;;;;;5056843;28;46413;-68
2021/12/17 05:54:14;;;;;;;20.90;12.10;;;4.70;77.10;;;;;;5058138;28;46651;-68
2021/12/17 05:56:40;;;;;;;16.77;10.53;;;4.70;77.10;;;;;;5059223;28;46431;-68
2021/12/17 05:59:07;;;;;;;21.77;11.50;;;4.70;77.00;;;;;;5057011;28;46437;-68
2021/12/17 06:01:33;;;;;;;22.60;11.13;;;4.60;77.20;;;;;;5057664;28;46409;-67
2021/12/17 06:03:59;;;;;;;17.43;10.97;;;4.70;77.40;;;;;;5069363;28;46421;-67
2021/12/17 06:06:34;;;;;;;20.90;11.47;;;4.70;77.30;;;;;;5056404;28;46279;-68
2021/12/17 06:09:08;;;;;;;21.77;12.20;;;4.70;77.30;;;;;;5062239;28;46290;-68
2021/12/17 06:11:35;;;;;;;20.05;12.07;;;4.80;77.30;;;;;;5062572;28;46280;-68
2021/12/17 06:14:01;;;;;;;16.93;10.00;;;4.80;77.10;;;;;;5055122;28;46551;-69
2021/12/17 06:16:27;;;;;;;17.70;10.30;;;4.90;77.00;;;;;;5056159;28;46432;-66
2021/12/17 06:18:54;;;;;;;16.93;10.63;;;4.90;76.90;;;;;;5060298;28;46482;-67
2021/12/17 06:21:19;;;;;;;17.93;10.17;;;5.00;76.90;;;;;;5052697;28;46484;-69
2021/12/17 06:23:45;;;;;;;18.30;11.07;;;4.90;77.00;;;;;;5053799;28;46296;-66
2021/12/17 06:26:11;;;;;;;17.10;10.67;;;4.90;77.40;;;;;;5055606;28;46351;-66
2021/12/17 06:28:37;;;;;;;18.60;10.67;;;4.80;78.80;;;;;;5051724;28;46372;-67
2021/12/17 06:31:06;;;;;;;21.63;11.13;;;4.80;78.10;;;;;;5055311;28;46420;-68
2021/12/17 06:33:32;;;;;;;19.33;10.63;;;4.80;78.20;;;;;;5069387;28;46399;-66
2021/12/17 06:35:57;;;;;;;22.13;11.63;;;4.70;78.10;;;;;;5058069;28;47091;-67
2021/12/17 06:38:25;;;;;;;18.57;10.90;;;4.80;77.90;;;;;;5050077;28;46556;-66
2021/12/17 06:40:57;;;;;;;18.87;11.47;;;4.80;78.00;;;;;;5054112;28;46428;-66
2021/12/17 06:43:28;;;;;;;17.07;9.33;;;4.90;77.60;;;;;;5056639;28;46473;-68
2021/12/17 06:46:02;;;;;;;17.17;9.97;;;5.00;77.30;;;;;;5056967;28;48132;-68
2021/12/17 06:48:30;;;;;;;15.02;10.05;;;5.10;77.20;;;;;;5054604;28;46469;-68
2021/12/17 07:18:40;;;;;;;8.10;6.10;;;5.30;77.20;;;;;;5071082;28;47015;-67
2021/12/17 07:24:36;;;;;;;8.10;4.90;;;5.30;77.30;;;;;;5066538;28;46251;-67
2021/12/17 07:34:09;;;;;;;7.60;5.90;;;5.20;77.90;;;;;;5067683;28;46366;-68
2021/12/17 07:39:29;;;;;;;6.73;4.77;;;5.20;78.20;;;;;;5044647;28;46870;-68
2021/12/17 07:41:55;;;;;;;9.10;6.10;;;5.20;78.50;;;;;;5059326;28;46258;-66
2021/12/17 07:44:23;;;;;;;7.50;5.97;;;5.20;78.50;;;;;;5063311;28;46463;-67
2021/12/17 07:46:49;;;;;;;7.83;4.70;;;5.20;78.50;;;;;;5059968;28;46440;-66
2021/12/17 07:49:14;;;;;;;7.73;5.03;;;5.20;78.40;;;;;;5062368;28;49037;-67
2021/12/17 07:51:40;;;;;;;7.70;4.90;;;5.20;78.40;;;;;;5061966;28;46439;-68
2021/12/17 07:54:09;;;;;;;6.93;4.40;;;5.20;78.30;;;;;;5055485;28;46397;-67
2021/12/17 07:56:37;;;;;;;8.97;5.30;;;5.10;78.40;;;;;;5064147;28;46444;-70
2021/12/17 07:59:07;;;;;;;8.20;5.23;;;5.20;78.70;;;;;;5058069;28;46362;-67
2021/12/17 08:01:34;;;;;;;8.80;6.37;;;5.10;78.50;;;;;;5072425;28;46484;-66
2021/12/17 08:04:00;;;;;;;7.73;6.00;;;5.20;78.60;;;;;;5057498;28;45929;-66
2021/12/17 08:06:28;;;;;;;6.83;5.30;;;5.20;78.50;;;;;;5058010;28;46634;-67
2021/12/17 08:08:53;;;;;;;8.20;5.97;;;5.20;78.50;;;;;;5057312;28;46433;-67
2021/12/17 08:11:21;;;;;;;6.87;5.60;;;5.30;78.40;;;;;;5056266;28;46310;-66
2021/12/17 08:13:50;;;;;;;8.00;6.40;;;5.40;78.20;;;;;;5064919;28;46391;-67
2021/12/17 08:31:59;;;;;;;9.33;6.80;;;5.80;76.90;;;;;;5068680;28;45761;-67
2021/12/17 08:34:25;;;;;;;7.10;5.70;;;5.80;77.30;;;;;;5057146;28;46384;-65
2021/12/17 08:36:53;;;;;;;8.00;6.25;;;5.80;77.20;;;;;;5053797;28;46383;-65
2021/12/17 08:39:20;;;;;;;9.57;7.17;;;5.90;76.90;;;;;;5057160;28;48717;-67
2021/12/17 08:41:51;;;;;;;10.93;7.50;;;5.90;77.30;;;;;;5055513;28;46425;-68
2021/12/17 08:44:17;;;;;;;14.00;9.40;;;5.90;77.30;;;;;;5053542;28;45873;-66
2021/12/17 08:46:42;;;;;;;18.00;11.60;;;5.90;77.60;;;;;;5057122;28;46432;-66
2021/12/17 08:49:09;;;;;;;14.77;9.67;;;6.00;77.40;;;;;;5054462;28;48009;-67
2021/12/17 08:51:36;;;;;;;19.60;11.53;;;6.10;77.10;;;;;;5056520;28;45897;-66
2021/12/17 08:54:10;;;;;;;29.53;16.10;;;6.20;76.90;;;;;;5068342;27;46632;-67
2021/12/17 08:56:46;;;;;;;14.33;9.17;;;6.10;77.00;;;;;;5064453;28;46360;-67
2021/12/17 08:59:17;;;;;;;18.93;13.03;;;6.10;77.00;;;;;;5072226;28;48681;-66
2021/12/17 09:01:44;;;;;;;68.67;33.80;;;6.20;76.90;;;;;;5055458;28;46307;-69
2021/12/17 09:04:11;;;;;;;11.60;8.67;;;6.20;76.40;;;;;;5053262;28;46702;-65
2021/12/17 09:06:36;;;;;;;18.13;10.23;;;6.10;76.60;;;;;;5074655;28;46436;-67
2021/12/17 09:09:04;;;;;;;49.60;25.90;;;6.20;76.70;;;;;;5059464;28;47820;-66
2021/12/17 09:11:30;;;;;;;13.80;8.83;;;6.30;76.40;;;;;;5055116;28;46382;-66
2021/12/17 09:14:01;;;;;;;10.60;7.90;;;6.40;75.80;;;;;;5056033;28;46396;-68
2021/12/17 09:16:27;;;;;;;18.87;11.83;;;6.60;75.10;;;;;;5056087;28;46375;-70
2021/12/17 09:18:55;;;;;;;15.90;11.47;;;6.50;75.00;;;;;;5060834;28;48078;-68
2021/12/17 09:21:23;;;;;;;13.37;9.83;;;6.60;75.00;;;;;;5057845;28;46406;-68
2021/12/17 09:23:49;;;;;;;11.70;8.10;;;6.70;75.10;;;;;;5054326;28;46345;-68
2021/12/17 09:26:24;;;;;;;11.67;7.67;;;6.60;75.10;;;;;;5054799;28;46341;-67
2021/12/17 09:28:50;;;;;;;9.50;7.00;;;6.60;75.10;;;;;;5062099;28;46378;-65
2021/12/17 09:31:16;;;;;;;12.47;8.27;;;6.60;75.00;;;;;;5053371;28;45792;-66
2021/12/17 09:33:46;;;;;;;13.93;8.67;;;6.60;75.00;;;;;;5061804;28;46384;-66
2021/12/17 09:36:12;;;;;;;10.90;7.67;;;6.60;75.10;;;;;;5058505;28;46477;-68
2021/12/17 09:38:38;;;;;;;9.73;6.17;;;6.70;75.10;;;;;;5052480;28;48792;-65
2021/12/17 09:41:04;;;;;;;10.60;7.60;;;6.70;75.10;;;;;;5054579;28;46494;-66
2021/12/17 09:43:35;;;;;;;10.23;7.10;;;6.80;74.90;;;;;;5069957;28;46373;-66
2021/12/17 09:46:05;;;;;;;11.30;6.93;;;6.90;74.20;;;;;;5059014;28;45870;-65
2021/12/17 09:48:33;;;;;;;11.17;8.33;;;6.80;74.60;;;;;;5049981;28;47903;-68
2021/12/17 09:50:59;;;;;;;10.90;7.83;;;6.90;74.30;;;;;;5060826;28;46486;-67
2021/12/17 09:53:25;;;;;;;10.83;7.33;;;7.10;73.60;;;;;;5057689;28;46412;-68
2021/12/17 09:55:51;;;;;;;7.97;6.03;;;7.10;73.20;;;;;;5058944;28;46728;-67
2021/12/17 09:58:17;;;;;;;10.00;7.10;;;6.90;73.50;;;;;;5055100;28;46359;-67
2021/12/17 10:00:45;;;;;;;11.73;7.70;;;7.00;73.80;;;;;;5054376;28;45818;-67
2021/12/17 10:03:11;;;;;;;11.23;8.47;;;7.10;73.30;;;;;;5056015;28;46424;-70
2021/12/17 10:05:39;;;;;;;13.43;8.13;;;7.00;73.50;;;;;;5058522;28;46372;-68
2021/12/17 10:08:19;;;;;;;10.93;7.40;;;7.00;73.60;;;;;;5055332;27;48002;-67
2021/12/17 10:10:48;;;;;;;10.20;7.27;;;7.10;73.40;;;;;;5071325;28;46476;-67
2021/12/17 10:13:17;;;;;;;8.90;6.53;;;7.20;73.10;;;;;;5054968;28;46287;-67
2021/12/17 10:15:46;;;;;;;10.30;6.93;;;7.10;72.70;;;;;;5057644;28;46364;-68
2021/12/17 10:18:13;;;;;;;11.37;7.60;;;7.10;72.70;;;;;;5054445;28;48940;-67
2021/12/17 10:20:57;;;;;;;12.00;7.70;;;7.00;72.80;;;;;;5055574;28;45785;-67
2021/12/17 10:23:24;;;;;;;11.10;8.73;;;7.10;72.90;;;;;;5060618;28;46311;-68
2021/12/17 10:25:53;;;;;;;10.93;7.23;;;7.20;73.10;;;;;;5058430;27;46396;-67
2021/12/17 10:28:19;;;;;;;11.13;7.80;;;7.20;72.90;;;;;;5061627;27;47889;-69
2021/12/17 10:30:47;;;;;;;13.23;8.20;;;7.10;72.70;;;;;;5049505;28;46327;-66
2021/12/17 10:33:19;;;;;;;10.00;7.03;;;7.00;72.90;;;;;;5054476;28;46240;-68
2021/12/17 10:35:51;;;;;;;10.70;7.10;;;7.10;72.60;;;;;;5071947;28;46401;-67
2021/12/17 10:38:22;;;;;;;9.87;7.43;;;7.40;72.10;;;;;;5055898;28;47737;-65
2021/12/17 10:41:03;;;;;;;9.93;7.30;;;7.50;71.10;;;;;;5056163;28;46386;-68
2021/12/17 10:43:36;;;;;;;8.63;6.57;;;7.60;71.10;;;;;;5059329;28;46513;-68
2021/12/17 10:46:30;;;;;;;9.27;7.10;;;7.60;70.80;;;;;;5047459;28;46362;-66
2021/12/17 10:54:09;;;;;;;12.53;7.03;;;7.80;70.10;;;;;;5070721;27;46445;-68
2021/12/17 10:56:36;;;;;;;10.97;7.90;;;7.90;70.00;;;;;;5063755;27;46399;-67
2021/12/17 10:59:06;;;;;;;10.40;7.33;;;7.90;70.10;;;;;;5053346;28;47824;-68
2021/12/17 11:01:45;;;;;;;11.30;7.87;;;8.00;69.80;;;;;;5051888;28;46373;-68
2021/12/17 11:04:23;;;;;;;11.37;7.90;;;8.20;69.80;;;;;;5051015;28;46256;-67
2021/12/17 11:07:15;;;;;;;10.13;7.37;;;8.30;69.40;;;;;;5062392;28;46477;-66
2021/12/17 11:09:58;;;;;;;10.40;7.40;;;8.40;69.00;;;;;;5061418;28;47183;-67
2021/12/17 11:12:25;;;;;;;15.33;8.87;;;8.00;69.50;;;;;;5072680;28;46514;-66
2021/12/17 11:14:52;;;;;;;14.43;9.47;;;7.60;70.50;;;;;;5062815;28;46358;-68
2021/12/17 11:17:23;;;;;;;11.20;7.87;;;7.20;71.40;;;;;;5057948;28;46494;-67
2021/12/17 11:19:55;;;;;;;11.40;8.17;;;7.00;72.10;;;;;;5061368;28;48657;-67
2021/12/17 11:22:23;;;;;;;13.60;8.17;;;7.00;72.20;;;;;;5053366;28;46321;-68
2021/12/17 11:24:52;;;;;;;11.70;8.30;;;6.90;72.10;;;;;;5053127;28;46478;-68
2021/12/17 11:27:20;;;;;;;11.53;8.83;;;6.70;72.50;;;;;;5058898;28;46283;-68
2021/12/17 11:29:49;;;;;;;14.27;9.00;;;6.50;72.90;;;;;;5055563;28;48167;-68
2021/12/17 11:32:15;;;;;;;14.37;9.43;;;6.70;72.70;;;;;;5074315;28;46388;-68
2021/12/17 11:34:44;;;;;;;13.67;9.00;;;6.80;72.30;;;;;;5074995;28;46583;-68
2021/12/17 11:37:11;;;;;;;12.53;8.60;;;6.70;72.30;;;;;;5076321;28;46261;-68
2021/12/17 11:39:46;;;;;;;11.60;8.57;;;6.80;72.10;;;;;;5054106;28;48070;-68
2021/12/17 11:42:24;;;;;;;12.73;8.70;;;6.90;71.90;;;;;;5050530;28;46449;-67
2021/12/17 11:45:23;;;;;;;10.77;8.13;;;6.80;71.50;;;;;;5056851;28;45834;-67
2021/12/17 11:47:41;;;;;;;13.20;8.43;;;6.60;72.10;;;;;;5073712;28;46392;-68
2021/12/17 11:50:12;;;;;;;13.40;8.57;;;6.50;72.40;;;;;;5069774;28;47852;-69
2021/12/17 11:52:39;;;;;;;13.20;8.77;;;6.60;72.40;;;;;;5060634;28;45851;-68
2021/12/17 11:55:20;;;;;;;13.90;10.00;;;6.50;72.30;;;;;;5057017;28;46260;-68
2021/12/17 11:57:47;;;;;;;14.57;10.07;;;6.40;72.40;;;;;;5064070;28;45960;-67
2021/12/17 12:00:15;;;;;;;14.07;10.47;;;6.30;72.50;;;;;;5066780;28;47738;-67
2021/12/17 12:02:47;;;;;;;13.80;9.60;;;6.20;72.90;;;;;;5056700;28;46398;-68
2021/12/17 12:05:33;;;;;;;12.57;9.20;;;6.20;73.40;;;;;;5071809;28;46398;-68
2021/12/17 12:08:30;;;;;;;17.30;8.53;;;6.10;73.30;;;;;;5055268;28;46360;-68
2021/12/17 12:11:25;;;;;;;22.07;12.20;;;6.00;73.50;;;;;;5070480;28;48001;-67
2021/12/17 12:13:53;;;;;;;14.23;9.10;;;5.90;73.90;;;;;;5053457;28;46539;-68
2021/12/17 12:16:32;;;;;;;13.97;9.40;;;5.80;74.30;;;;;;5073719;28;46343;-69
2021/12/17 12:19:08;;;;;;;15.30;8.40;;;5.60;74.20;;;;;;5073274;28;46472;-68
2021/12/17 12:21:37;;;;;;;13.00;8.97;;;5.60;74.10;;;;;;5056699;28;47735;-66
2021/12/17 12:24:12;;;;;;;14.23;9.17;;;5.70;74.30;;;;;;5055077;28;46470;-66
2021/12/17 12:26:48;;;;;;;12.80;9.07;;;5.70;74.30;;;;;;5062110;28;46596;-67
2021/12/17 12:29:21;;;;;;;13.43;9.60;;;5.70;74.20;;;;;;5056833;28;46423;-66
2021/12/17 12:31:56;;;;;;;16.27;10.63;;;5.60;74.10;;;;;;5055665;28;47851;-67
2021/12/17 12:34:34;;;;;;;12.47;9.70;;;5.40;74.00;;;;;;5052870;28;46419;-68
2021/12/17 12:37:04;;;;;;;13.70;9.50;;;5.60;74.10;;;;;;5060703;28;46461;-67
2021/12/17 12:39:48;;;;;;;17.10;9.90;;;5.60;74.10;;;;;;5058072;28;45911;-66
2021/12/17 12:42:17;;;;;;;14.47;10.13;;;5.50;74.10;;;;;;5054553;28;47823;-69
2021/12/17 12:44:46;;;;;;;17.50;11.20;;;5.50;74.10;;;;;;5058875;28;46508;-68
2021/12/17 12:47:24;;;;;;;12.77;9.63;;;5.50;74.10;;;;;;5062805;28;46328;-67
2021/12/17 12:49:56;;;;;;;14.50;10.10;;;5.50;74.10;;;;;;5061719;28;46414;-68
2021/12/17 12:52:34;;;;;;;15.37;10.60;;;5.50;74.10;;;;;;5053345;28;48618;-67
2021/12/17 12:55:29;;;;;;;14.67;10.43;;;5.40;74.00;;;;;;5061005;27;46416;-69
2021/12/17 12:57:58;;;;;;;16.80;11.20;;;5.30;74.60;;;;;;5057009;27;46325;-66
2021/12/17 13:00:25;;;;;;;14.90;10.27;;;5.40;74.50;;;;;;5061099;28;46592;-67
2021/12/17 13:03:05;;;;;;;17.27;11.33;;;5.50;74.40;;;;;;5055570;28;48668;-67
2021/12/17 13:05:33;;;;;;;16.13;11.53;;;5.60;74.10;;;;;;5050863;28;46429;-68
2021/12/17 13:08:03;;;;;;;15.90;10.20;;;5.60;74.10;;;;;;5057386;28;46469;-69
2021/12/17 13:10:33;;;;;;;15.70;10.83;;;5.60;74.10;;;;;;5052052;28;46461;-68
2021/12/17 13:26:43;;;;;;;16.30;11.33;;;5.90;74.40;;;;;;5064917;27;46366;-67
2021/12/17 13:29:23;;;;;;;15.60;10.60;;;5.90;74.40;;;;;;5060033;27;46469;-69
2021/12/17 13:32:01;;;;;;;15.70;10.30;;;5.90;74.50;;;;;;5056171;28;46276;-67
2021/12/17 13:34:34;;;;;;;16.80;10.77;;;5.90;74.40;;;;;;5053945;28;48052;-67
2021/12/17 13:37:12;;;;;;;16.47;11.87;;;5.80;74.40;;;;;;5061207;28;46315;-68
2021/12/17 13:39:53;;;;;;;17.53;10.83;;;5.70;74.60;;;;;;5070062;28;46437;-68
2021/12/17 13:42:25;;;;;;;19.80;12.77;;;5.60;74.90;;;;;;5061783;28;45997;-68
2021/12/17 13:45:03;;;;;;;14.57;11.00;;;5.70;75.10;;;;;;5064762;28;46387;-68
2021/12/17 13:47:40;;;;;;;18.73;12.63;;;5.70;75.10;;;;;;5054139;28;46366;-68
2021/12/17 13:50:21;;;;;;;31.93;13.53;;;5.70;75.00;;;;;;5051033;28;46458;-69
2021/12/17 13:52:52;;;;;;;21.17;12.93;;;5.80;74.30;;;;;;5053630;28;46438;-66
2021/12/17 13:55:25;;;;;;;20.77;13.60;;;5.80;74.40;;;;;;5052517;28;47950;-68
2021/12/17 13:57:51;;;;;;;19.40;12.90;;;5.80;74.40;;;;;;5059191;28;46552;-68
2021/12/17 14:00:24;;;;;;;18.23;12.70;;;5.90;74.40;;;;;;5056504;28;46461;-68
2021/12/17 14:02:54;;;;;;;18.53;11.73;;;5.90;74.40;;;;;;5052275;28;46107;-67
2021/12/17 14:05:27;;;;;;;17.73;11.77;;;5.80;74.40;;;;;;5068007;28;46551;-68
2021/12/17 14:08:10;;;;;;;14.03;9.87;;;5.70;74.70;;;;;;5052387;27;46447;-67
2021/12/17 14:10:39;;;;;;;15.93;10.60;;;5.60;75.30;;;;;;5061920;28;45799;-68
2021/12/17 14:13:15;;;;;;;14.13;10.60;;;5.60;75.40;;;;;;5051449;28;46611;-68
2021/12/17 14:15:43;;;;;;;13.03;9.53;;;5.70;75.30;;;;;;5053093;28;48093;-67
2021/12/17 14:18:09;;;;;;;14.07;9.83;;;5.70;75.20;;;;;;5053825;27;46474;-68
2021/12/17 14:20:38;;;;;;;11.60;8.53;;;5.70;75.20;;;;;;5048448;28;46322;-67
2021/12/17 14:23:07;;;;;;;99.30;38.07;;;5.70;75.30;;;;;;5057229;28;46437;-67
2021/12/17 14:25:42;;;;;;;23.87;13.53;;;5.80;75.10;;;;;;5053057;28;47941;-68
2021/12/17 14:28:22;;;;;;;18.77;12.40;;;5.70;75.10;;;;;;5053791;27;46440;-67
2021/12/17 14:31:14;;;;;;;27.50;17.10;;;5.70;75.50;;;;;;5057206;28;46724;-67
2021/12/17 14:33:46;;;;;;;31.60;16.80;;;5.80;75.30;;;;;;5060755;28;46520;-66
2021/12/17 14:36:18;;;;;;;19.23;13.10;;;5.90;74.90;;;;;;5061637;27;46376;-67
2021/12/17 14:38:48;;;;;;;14.03;9.87;;;5.90;74.60;;;;;;5067064;28;46525;-67
2021/12/17 14:41:42;;;;;;;14.57;8.83;;;6.00;74.50;;;;;;5051905;28;46381;-67
2021/12/17 14:44:31;;;;;;;16.07;10.67;;;5.90;74.50;;;;;;5063611;28;45930;-65
2021/12/17 14:47:17;;;;;;;17.37;11.43;;;5.90;74.90;;;;;;5057761;28;46532;-67
2021/12/17 15:05:43;;;;;;;19.57;13.53;;;6.00;74.50;;;;;;5071765;28;46432;-67
2021/12/17 15:08:09;;;;;;;21.57;13.67;;;6.00;74.50;;;;;;5053211;27;46409;-66
2021/12/17 15:10:35;;;;;;;24.93;14.97;;;5.90;75.00;;;;;;5055323;28;46741;-66
2021/12/17 15:13:02;;;;;;;26.77;14.60;;;5.80;75.50;;;;;;5054999;27;46506;-68
2021/12/17 15:15:36;;;;;;;19.43;12.27;;;5.70;75.80;;;;;;5053504;28;46864;-67
2021/12/17 15:18:05;;;;;;;23.20;14.50;;;5.70;76.00;;;;;;5056129;28;47935;-67
2021/12/17 15:20:33;;;;;;;19.90;12.97;;;5.60;76.00;;;;;;5057415;28;45764;-68
2021/12/17 15:23:02;;;;;;;21.40;13.43;;;5.60;76.10;;;;;;5057439;27;46559;-67
2021/12/17 15:25:30;;;;;;;21.27;13.50;;;5.50;76.40;;;;;;5061555;28;46602;-67
2021/12/17 15:27:56;;;;;;;20.23;12.67;;;5.50;76.50;;;;;;5061488;27;48645;-67
2021/12/17 15:30:31;;;;;;;26.57;15.77;;;5.40;76.60;;;;;;5061699;28;46227;-67
2021/12/17 15:32:58;;;;;;;26.37;15.83;;;5.40;76.80;;;;;;5053382;27;46402;-66
2021/12/17 15:35:27;;;;;;;25.10;13.77;;;5.50;76.50;;;;;;5056886;28;46464;-66
2021/12/17 15:37:56;;;;;;;31.27;19.10;;;5.40;76.40;;;;;;5063238;27;46371;-67
2021/12/17 15:40:25;;;;;;;35.57;20.73;;;5.40;76.70;;;;;;5062839;28;46367;-67
2021/12/17 15:42:53;;;;;;;27.77;15.50;;;5.40;76.60;;;;;;5062733;28;46467;-66
2021/12/17 15:45:19;;;;;;;33.50;17.57;;;5.40;76.70;;;;;;5064976;28;46589;-66
2021/12/17 15:47:45;;;;;;;29.43;17.43;;;5.30;76.80;;;;;;5064608;28;48130;-67
2021/12/17 15:50:14;;;;;;;29.60;16.93;;;5.30;76.80;;;;;;5082101;28;46350;-67
2021/12/17 15:52:46;;;;;;;35.57;18.93;;;5.30;76.90;;;;;;5064170;28;46479;-67
2021/12/17 15:55:20;;;;;;;32.97;18.40;;;5.10;77.40;;;;;;5064742;28;46788;-66
2021/12/17 15:57:46;;;;;;;32.50;18.43;;;5.10;77.40;;;;;;5064131;28;46419;-67
2021/12/17 16:00:14;;;;;;;37.37;21.07;;;5.10;77.30;;;;;;5064499;28;45867;-67
2021/12/17 16:02:42;;;;;;;36.93;20.80;;;5.10;77.30;;;;;;5064072;28;46405;-68
2021/12/17 16:05:09;;;;;;;29.93;18.10;;;5.10;77.20;;;;;;5065107;28;46337;-67
2021/12/17 16:07:36;;;;;;;33.53;18.20;;;5.10;77.40;;;;;;5063479;28;47865;-66
2021/12/17 16:18:17;;;;;;;19.93;13.30;;;5.30;76.90;;;;;;5082775;28;46533;-66
2021/12/17 16:21:03;;;;;;;17.80;11.40;;;5.30;78.00;;;;;;5064352;28;46468;-66
2021/12/17 16:23:37;;;;;;;21.83;13.30;;;5.30;76.80;;;;;;5063814;28;46492;-66
2021/12/17 16:26:07;;;;;;;27.90;15.87;;;5.40;76.40;;;;;;5064061;28;46583;-66
2021/12/17 16:28:35;;;;;;;24.13;13.37;;;5.40;76.10;;;;;;5063676;28;48641;-66
2021/12/17 16:31:11;;;;;;;20.50;14.17;;;5.40;76.20;;;;;;5063692;27;46452;-66